Time;durP1;ratioP1;P1;durP2;ratioP2;P2;SDS_P1;SDS_P2;PMS_P1;PMS_P2;Temp;Humidity;BMP_temperature;BMP_pressure;BME280_temperature;BME280_humidity;BME280_pressure;Samples;Min_cycle;Max_cycle;Signal;HPM_P1;HPM_P2
2022/07/06 00:01:30;;;;;;;3.78;0.65;;;;;;;17.49;44.81;101458.38;7395142;19;20015;-72
2022/07/06 00:03:58;;;;;;;3.30;1.17;;;;;;;17.47;45.23;101459.38;7393650;19;20456;-72
2022/07/06 00:06:27;;;;;;;3.20;1.17;;;;;;;17.46;45.45;101458.50;7395754;19;20010;-72
2022/07/06 00:08:56;;;;;;;1.95;0.85;;;;;;;17.46;45.39;101457.63;7396099;19;20023;-72
2022/07/06 00:11:25;;;;;;;3.13;1.02;;;;;;;17.47;45.57;101460.22;7393930;19;20031;-72
2022/07/06 00:13:54;;;;;;;2.90;0.88;;;;;;;17.45;45.62;101453.25;7393938;19;20022;-72
2022/07/06 00:16:25;;;;;;;1.25;0.80;;;;;;;17.46;46.01;101449.69;7395905;19;20019;-72
2022/07/06 00:18:54;;;;;;;1.73;0.70;;;;;;;17.47;45.87;101456.72;7393731;19;20028;-72
2022/07/06 00:21:23;;;;;;;3.15;1.33;;;;;;;17.47;46.07;101459.38;7394141;19;20427;-72
2022/07/06 00:23:51;;;;;;;1.75;0.63;;;;;;;17.46;46.34;101457.63;7393995;19;20029;-72
2022/07/06 00:26:20;;;;;;;1.50;0.80;;;;;;;17.46;46.48;101447.03;7395240;19;20488;-71
2022/07/06 00:28:48;;;;;;;3.08;0.90;;;;;;;17.47;46.69;101446.97;7393963;19;20027;-68
2022/07/06 00:31:17;;;;;;;3.70;1.25;;;;;;;17.49;46.76;101449.53;7393342;19;20022;-69
2022/07/06 00:33:48;;;;;;;1.85;0.80;;;;;;;17.49;46.70;101441.59;7393683;19;20023;-69
2022/07/06 00:36:17;;;;;;;2.17;0.70;;;;;;;17.48;47.02;101445.16;7395054;19;20441;-69
2022/07/06 00:38:45;;;;;;;3.90;0.90;;;;;;;17.47;46.95;101443.47;7393727;19;20022;-69
2022/07/06 00:41:15;;;;;;;2.28;0.60;;;;;;;17.45;47.21;101445.28;7393580;19;20022;-69
2022/07/06 00:43:55;;;;;;;1.02;0.80;;;;;;;17.42;47.71;101452.44;7392857;19;20432;-69
2022/07/06 00:46:28;;;;;;;2.00;0.80;;;;;;;17.39;47.69;101443.75;7393805;19;20019;-69
2022/07/06 00:48:59;;;;;;;1.73;0.80;;;;;;;17.36;47.75;101451.81;7393196;19;20427;-69
2022/07/06 00:51:31;;;;;;;1.45;0.50;;;;;;;17.33;47.79;101446.66;7392873;19;20039;-69
2022/07/06 00:54:02;;;;;;;3.85;0.65;;;;;;;17.30;48.32;101433.50;7395326;19;20014;-69
2022/07/06 00:56:33;;;;;;;2.45;1.05;;;;;;;17.26;48.21;101451.31;7395343;19;20074;-69
2022/07/06 00:59:02;;;;;;;2.17;0.50;;;;;;;17.20;48.22;101443.59;7394497;19;20014;-69
2022/07/06 01:01:31;;;;;;;1.10;0.70;;;;;;;17.17;48.54;101456.97;7394795;19;20022;-69
2022/07/06 01:04:02;;;;;;;2.75;0.73;;;;;;;17.11;48.97;101452.78;7391972;19;20548;-69
2022/07/06 01:06:31;;;;;;;2.53;0.95;;;;;;;17.06;49.48;101458.25;7393181;19;20022;-68
2022/07/06 01:08:59;;;;;;;3.03;0.70;;;;;;;17.01;49.33;101457.56;7398813;19;20094;-69
2022/07/06 01:11:28;;;;;;;1.13;0.60;;;;;;;16.91;49.80;101457.03;7399239;19;20031;-74
2022/07/06 01:13:58;;;;;;;2.13;0.73;;;;;;;16.83;49.73;101456.41;7399501;19;20019;-70
2022/07/06 01:16:27;;;;;;;4.13;0.90;;;;;;;16.76;49.96;101458.41;7399702;19;20031;-69
2022/07/06 01:18:55;;;;;;;1.42;0.60;;;;;;;16.71;50.51;101460.38;7401840;19;20019;-69
2022/07/06 01:21:26;;;;;;;1.35;0.73;;;;;;;16.64;51.04;101452.69;7398927;19;20035;-69
2022/07/06 01:23:55;;;;;;;1.75;0.90;;;;;;;16.56;50.86;101458.28;7399599;19;20032;-69
2022/07/06 01:26:24;;;;;;;1.58;0.73;;;;;;;16.50;51.46;101463.78;7401507;19;20022;-69
2022/07/06 01:28:54;;;;;;;3.65;0.80;;;;;;;16.43;51.64;101460.50;7401082;19;20507;-72
2022/07/06 01:31:24;;;;;;;3.65;0.77;;;;;;;16.38;51.86;101455.34;7398686;19;20035;-70
2022/07/06 01:33:55;;;;;;;1.20;0.70;;;;;;;16.35;51.96;101458.13;7398683;19;20035;-69
2022/07/06 01:36:26;;;;;;;1.20;0.82;;;;;;;16.32;51.83;101450.28;7400912;19;20034;-69
2022/07/06 01:38:58;;;;;;;3.95;0.80;;;;;;;16.29;51.92;101448.59;7398755;19;20022;-69
2022/07/06 01:41:26;;;;;;;2.33;0.70;;;;;;;16.29;51.91;101453.03;7397999;19;20026;-69
2022/07/06 01:43:55;;;;;;;2.42;0.90;;;;;;;16.26;52.24;101455.78;7398327;19;20018;-69
2022/07/06 01:46:23;;;;;;;5.65;0.90;;;;;;;16.19;52.65;101448.94;7398817;19;20018;-69
2022/07/06 01:48:52;;;;;;;1.00;0.80;;;;;;;16.12;52.76;101449.19;7400986;19;20014;-72
2022/07/06 01:51:20;;;;;;;1.00;0.68;;;;;;;16.09;53.00;101451.91;7398301;19;20039;-70
2022/07/06 01:53:51;;;;;;;1.45;0.63;;;;;;;16.09;52.89;101457.22;7400790;19;20031;-69
2022/07/06 01:56:21;;;;;;;2.40;0.75;;;;;;;16.10;52.84;101458.09;7400768;19;20035;-68
2022/07/06 01:58:50;;;;;;;3.58;0.60;;;;;;;16.12;53.29;101467.72;7400025;19;20086;-67
2022/07/06 02:01:19;;;;;;;0.73;0.63;;;;;;;16.10;53.21;101460.75;7397812;19;20023;-67
2022/07/06 02:03:49;;;;;;;4.38;0.95;;;;;;;16.06;53.36;101467.91;7397222;19;20014;-71
2022/07/06 02:06:17;;;;;;;8.45;1.10;;;;;;;16.04;53.43;101463.59;7399840;19;20014;-68
2022/07/06 02:08:46;;;;;;;1.67;1.05;;;;;;;16.02;53.74;101474.19;7397680;19;20391;-67
2022/07/06 02:11:17;;;;;;;1.13;0.80;;;;;;;15.99;54.15;101484.06;7397485;19;20387;-67
2022/07/06 02:13:45;;;;;;;3.47;0.90;;;;;;;15.94;54.55;101482.41;7397965;19;20031;-67
2022/07/06 02:16:14;;;;;;;4.45;1.20;;;;;;;15.88;55.14;101487.03;7397242;19;20022;-67
2022/07/06 02:18:43;;;;;;;3.90;1.20;;;;;;;15.79;55.12;101483.72;7397066;19;20018;-67
2022/07/06 02:21:12;;;;;;;1.63;0.80;;;;;;;15.72;55.78;101490.13;7394315;19;20508;-68
2022/07/06 02:23:41;;;;;;;2.35;0.93;;;;;;;15.69;55.68;101492.88;7397759;19;20039;-68
2022/07/06 02:26:09;;;;;;;2.65;1.70;;;;;;;15.67;55.52;101497.34;7398716;19;20377;-68
2022/07/06 02:28:41;;;;;;;3.22;1.00;;;;;;;15.67;55.87;101496.47;7397576;19;20481;-66
2022/07/06 02:31:09;;;;;;;3.08;1.25;;;;;;;15.67;55.93;101500.00;7397407;19;20018;-68
2022/07/06 02:33:38;;;;;;;4.35;1.15;;;;;;;15.68;56.53;101496.41;7398536;19;20018;-68
2022/07/06 02:36:06;;;;;;;2.53;1.65;;;;;;;15.67;56.39;101492.06;7395730;19;20019;-68
2022/07/06 02:38:35;;;;;;;3.35;1.08;;;;;;;15.66;58.03;101495.63;7396872;19;20039;-69
2022/07/06 02:41:03;;;;;;;2.85;1.10;;;;;;;15.66;57.29;101489.44;7398169;19;20019;-68
2022/07/06 02:43:32;;;;;;;2.05;1.20;;;;;;;15.65;56.76;101493.88;7396759;19;20544;-68
2022/07/06 02:46:03;;;;;;;4.10;1.60;;;;;;;15.66;57.08;101497.38;7398152;19;20500;-68
2022/07/06 02:48:31;;;;;;;2.00;1.20;;;;;;;15.67;57.12;101502.66;7398298;19;20015;-68
2022/07/06 02:51:00;;;;;;;3.92;1.42;;;;;;;15.66;57.32;101498.25;7395702;19;20484;-68
2022/07/06 02:53:29;;;;;;;3.50;1.30;;;;;;;15.66;56.86;101500.91;7398459;19;20086;-68
2022/07/06 02:55:58;;;;;;;3.05;1.00;;;;;;;15.62;57.45;101502.78;7398197;19;20031;-69
2022/07/06 02:58:26;;;;;;;3.60;1.38;;;;;;;15.60;57.58;101501.09;7395723;19;20038;-68
2022/07/06 03:00:55;;;;;;;2.03;1.23;;;;;;;15.57;57.79;101512.63;7396948;19;20014;-69
2022/07/06 03:03:26;;;;;;;4.53;1.88;;;;;;;15.52;57.95;101498.69;7396774;19;20022;-69
2022/07/06 03:06:07;;;;;;;4.13;1.30;;;;;;;15.51;58.52;101504.88;7393532;19;20018;-69
2022/07/06 03:08:36;;;;;;;2.28;1.38;;;;;;;15.49;57.85;101496.13;7395766;19;20453;-69
2022/07/06 03:11:04;;;;;;;1.98;1.20;;;;;;;15.46;57.99;101493.59;7395544;19;20018;-69
2022/07/06 03:13:33;;;;;;;4.50;1.25;;;;;;;15.42;57.96;101503.38;7397461;19;20082;-69
2022/07/06 03:16:01;;;;;;;3.58;1.38;;;;;;;15.43;58.22;101506.88;7395205;19;20018;-69
2022/07/06 03:18:32;;;;;;;3.05;1.42;;;;;;;15.38;58.62;101507.03;7397693;19;20036;-69
2022/07/06 03:21:03;;;;;;;12.40;1.58;;;;;;;15.37;58.57;101509.72;7395884;19;20048;-69
2022/07/06 03:23:32;;;;;;;1.77;1.15;;;;;;;15.32;58.89;101508.06;7396971;19;20018;-68
2022/07/06 03:26:01;;;;;;;2.80;1.33;;;;;;;15.27;59.29;101514.41;7397500;19;20082;-69
2022/07/06 03:28:29;;;;;;;3.63;1.30;;;;;;;15.23;59.12;101523.34;7396963;19;20075;-68
2022/07/06 03:30:58;;;;;;;4.35;1.30;;;;;;;15.21;59.42;101515.44;7394299;19;20019;-69
2022/07/06 03:33:26;;;;;;;1.50;1.13;;;;;;;15.21;59.52;101509.31;7397080;19;20014;-68
2022/07/06 03:35:57;;;;;;;3.53;1.58;;;;;;;15.18;59.83;101510.25;7394320;19;20485;-68
2022/07/06 03:38:26;;;;;;;1.77;1.35;;;;;;;15.20;59.43;101524.28;7396737;19;20260;-68
2022/07/06 03:40:54;;;;;;;4.78;1.60;;;;;;;15.20;59.66;101523.44;7394721;19;20071;-69
2022/07/06 03:43:23;;;;;;;2.38;1.20;;;;;;;15.19;59.86;101516.41;7394724;19;20035;-69
2022/07/06 03:45:51;;;;;;;2.03;1.40;;;;;;;15.21;59.80;101523.38;7394638;19;20081;-68
2022/07/06 03:48:20;;;;;;;1.83;1.00;;;;;;;15.25;59.52;101522.41;7396307;19;20035;-68
2022/07/06 03:50:48;;;;;;;3.25;1.60;;;;;;;15.29;59.64;101529.31;7395305;19;20022;-68
2022/07/06 03:53:19;;;;;;;1.90;1.02;;;;;;;15.34;59.92;101534.44;7396001;19;20469;-69
2022/07/06 03:56:27;;;;;;;2.03;1.00;;;;;;;15.36;59.68;101527.34;7394938;19;20035;-68
2022/07/06 03:58:37;;;;;;;3.38;1.50;;;;;;;15.38;59.32;101528.19;7395493;19;20014;-68
2022/07/06 04:01:05;;;;;;;4.60;1.50;;;;;;;15.42;59.95;101528.97;7394295;19;20096;-68
2022/07/06 04:03:34;;;;;;;1.90;1.25;;;;;;;15.45;59.34;101524.44;7394894;19;20485;-69
2022/07/06 04:06:02;;;;;;;4.32;1.30;;;;;;;15.49;59.57;101533.13;7395544;19;20473;-68
2022/07/06 04:08:33;;;;;;;3.10;1.45;;;;;;;15.50;59.36;101529.59;7393384;19;20536;-68
2022/07/06 04:11:02;;;;;;;3.17;1.20;;;;;;;15.51;59.41;101528.69;7394576;19;20022;-68
2022/07/06 04:13:30;;;;;;;5.10;1.23;;;;;;;15.54;59.53;101522.44;7395241;19;20031;-68
2022/07/06 04:15:59;;;;;;;3.25;1.30;;;;;;;15.55;59.28;101527.66;7395864;19;20090;-68
2022/07/06 04:18:27;;;;;;;2.90;1.35;;;;;;;15.54;59.70;101515.34;7395732;19;20014;-68
2022/07/06 04:20:57;;;;;;;3.97;1.80;;;;;;;15.53;59.31;101525.97;7393739;19;20018;-68
2022/07/06 04:23:26;;;;;;;5.00;1.52;;;;;;;15.52;59.46;101525.13;7394758;19;20091;-68
2022/07/06 04:25:57;;;;;;;4.57;1.50;;;;;;;15.51;59.62;101527.84;7393668;19;20033;-68
2022/07/06 04:28:25;;;;;;;8.93;1.50;;;;;;;15.47;59.78;101524.41;7395681;19;20069;-68
2022/07/06 04:30:54;;;;;;;7.53;1.50;;;;;;;15.45;59.94;101521.78;7393339;19;20018;-68
2022/07/06 04:33:22;;;;;;;5.35;1.42;;;;;;;15.44;59.94;101524.47;7393050;19;20103;-68
2022/07/06 04:35:51;;;;;;;3.17;1.20;;;;;;;15.40;60.20;101530.78;7394137;19;20017;-68
2022/07/06 04:38:20;;;;;;;2.78;1.58;;;;;;;15.36;60.12;101535.28;7392601;19;20023;-68
2022/07/06 04:40:49;;;;;;;3.90;1.48;;;;;;;15.34;60.28;101537.09;7392954;19;20039;-68
2022/07/06 04:43:20;;;;;;;5.32;1.55;;;;;;;15.34;60.55;101541.53;7392673;19;20031;-68
2022/07/06 04:45:48;;;;;;;5.20;1.33;;;;;;;15.34;60.28;101542.38;7395009;19;20089;-68
2022/07/06 04:48:17;;;;;;;2.40;1.33;;;;;;;15.33;60.71;101545.97;7394649;19;20026;-68
2022/07/06 04:50:45;;;;;;;1.60;1.20;;;;;;;15.32;60.78;101545.06;7392246;19;20018;-70
2022/07/06 04:53:14;;;;;;;5.05;1.83;;;;;;;15.30;60.99;101546.91;7393291;19;20418;-68
2022/07/06 04:55:42;;;;;;;4.72;1.58;;;;;;;15.31;60.94;101547.78;7392500;19;20092;-68
2022/07/06 04:58:11;;;;;;;4.85;2.00;;;;;;;15.30;61.11;101541.63;7393950;19;20018;-68
2022/07/06 05:00:42;;;;;;;4.05;1.40;;;;;;;15.30;61.66;101548.69;7391034;19;20520;-68
2022/07/06 05:03:10;;;;;;;6.15;1.50;;;;;;;15.31;61.57;101539.84;7391402;19;20449;-68
2022/07/06 05:05:39;;;;;;;6.38;1.60;;;;;;;15.34;61.12;101538.88;7393506;19;20041;-68
2022/07/06 05:08:07;;;;;;;2.85;1.40;;;;;;;15.39;61.52;101540.50;7391008;19;20100;-67
2022/07/06 05:10:36;;;;;;;4.72;1.35;;;;;;;15.46;61.20;101546.47;7389968;19;20094;-68
2022/07/06 05:13:04;;;;;;;7.68;2.08;;;;;;;15.53;61.18;101541.84;7391199;19;20484;-67
2022/07/06 05:15:33;;;;;;;4.53;1.70;;;;;;;15.60;61.14;101543.41;7392755;19;20371;-67
2022/07/06 05:18:04;;;;;;;4.47;1.40;;;;;;;15.67;60.93;101544.97;7392776;19;20027;-69
2022/07/06 05:20:33;;;;;;;6.72;1.95;;;;;;;15.73;60.49;101528.91;7391850;19;20015;-68
2022/07/06 05:23:01;;;;;;;4.68;1.60;;;;;;;15.80;60.52;101543.66;7392757;19;20019;-68
2022/07/06 05:25:31;;;;;;;5.28;1.67;;;;;;;15.86;60.50;101544.41;7391662;19;20026;-67
2022/07/06 05:28:00;;;;;;;6.32;1.38;;;;;;;15.86;59.84;101547.06;7394061;19;20406;-68
2022/07/06 05:30:28;;;;;;;5.43;1.42;;;;;;;15.83;60.31;101557.75;7391807;19;20573;-68
2022/07/06 05:32:57;;;;;;;5.65;1.23;;;;;;;15.83;60.03;101553.31;7392798;19;20509;-68
2022/07/06 05:35:28;;;;;;;4.13;1.10;;;;;;;15.83;59.65;101553.31;7393377;19;20018;-68
2022/07/06 05:37:56;;;;;;;5.10;1.00;;;;;;;15.88;58.94;101558.47;7392809;19;20028;-69
2022/07/06 05:40:25;;;;;;;4.45;1.65;;;;;;;15.93;58.58;101559.19;7390157;19;20022;-68
2022/07/06 05:42:53;;;;;;;4.68;1.20;;;;;;;15.93;58.18;101553.91;7389999;19;20010;-68
2022/07/06 05:45:22;;;;;;;6.25;1.40;;;;;;;15.98;57.88;101551.13;7391012;19;20027;-68
2022/07/06 05:50:34;;;;;;;4.05;1.10;;;;;;;15.91;57.90;101558.38;7391598;19;20019;-68
2022/07/06 05:53:05;;;;;;;2.22;0.80;;;;;;;15.86;58.17;101566.47;7392160;19;20026;-68
2022/07/06 05:55:34;;;;;;;3.20;1.10;;;;;;;15.84;58.20;101548.91;7395169;19;20014;-69
2022/07/06 05:58:02;;;;;;;4.72;1.33;;;;;;;15.88;58.17;101554.03;7396324;19;20011;-68
2022/07/06 06:00:31;;;;;;;2.83;1.00;;;;;;;15.97;57.98;101552.88;7398289;19;20019;-68
2022/07/06 06:03:01;;;;;;;2.30;1.40;;;;;;;16.02;58.24;101547.47;7399118;19;20035;-68
2022/07/06 06:05:29;;;;;;;3.75;1.17;;;;;;;16.03;57.87;101552.69;7396465;19;20074;-68
2022/07/06 06:08:00;;;;;;;4.75;1.35;;;;;;;16.04;57.85;101545.63;7396402;19;20027;-69
2022/07/06 06:10:29;;;;;;;3.22;1.00;;;;;;;16.03;57.54;101550.03;7397831;19;20138;-69
2022/07/06 06:12:58;;;;;;;4.47;0.73;;;;;;;16.06;57.45;101542.03;7398518;19;20018;-67
2022/07/06 06:15:26;;;;;;;2.92;1.15;;;;;;;16.10;56.68;101548.09;7400319;19;20015;-67
2022/07/06 06:17:55;;;;;;;2.72;1.10;;;;;;;16.11;55.63;101552.44;7396392;19;20024;-67
2022/07/06 06:20:24;;;;;;;4.72;0.82;;;;;;;16.18;55.83;101558.44;7396174;19;20011;-68
2022/07/06 06:22:54;;;;;;;3.03;1.05;;;;;;;16.22;55.05;101554.75;7399293;19;20022;-68
2022/07/06 06:25:33;;;;;;;4.47;1.17;;;;;;;16.27;55.24;101550.19;7395768;19;20095;-68
2022/07/06 06:28:02;;;;;;;2.53;1.10;;;;;;;16.33;54.83;101555.28;7396918;19;20023;-68
2022/07/06 06:30:30;;;;;;;3.50;0.82;;;;;;;16.43;54.94;101558.50;7396441;19;20014;-68
2022/07/06 06:33:09;;;;;;;3.70;0.80;;;;;;;16.50;53.82;101556.50;7398179;19;20498;-68
2022/07/06 06:35:38;;;;;;;6.30;0.93;;;;;;;16.45;53.53;101561.94;7395282;19;20027;-68
2022/07/06 06:38:07;;;;;;;2.70;0.90;;;;;;;16.47;53.87;101561.88;7394727;19;20473;-67
2022/07/06 06:40:38;;;;;;;3.53;1.27;;;;;;;16.48;54.08;101550.38;7395372;19;20119;-67
2022/07/06 06:43:07;;;;;;;1.23;0.60;;;;;;;16.56;53.83;101551.00;7397785;19;20022;-67
2022/07/06 06:45:36;;;;;;;3.85;1.02;;;;;;;16.63;53.76;101541.94;7396218;19;20015;-68
2022/07/06 06:48:04;;;;;;;2.38;0.63;;;;;;;16.73;53.73;101548.63;7395968;19;20036;-68
2022/07/06 06:50:33;;;;;;;3.38;0.90;;;;;;;16.77;53.42;101552.91;7396626;19;20078;-67
2022/07/06 06:53:02;;;;;;;4.35;1.23;;;;;;;16.81;53.41;101550.13;7395974;19;20019;-68
2022/07/06 06:55:30;;;;;;;5.65;1.30;;;;;;;16.86;53.02;101556.16;7397793;19;20014;-68
2022/07/06 06:58:01;;;;;;;4.93;1.52;;;;;;;16.86;52.48;101558.81;7395732;19;20022;-68
2022/07/06 07:00:30;;;;;;;4.32;1.10;;;;;;;16.84;52.34;101553.53;7396953;19;20015;-68
2022/07/06 07:02:58;;;;;;;1.75;0.80;;;;;;;16.85;52.45;101560.56;7398024;19;20078;-69
2022/07/06 07:05:27;;;;;;;2.25;0.73;;;;;;;16.85;51.97;101551.78;7394778;19;20026;-68
2022/07/06 07:07:58;;;;;;;2.85;0.70;;;;;;;16.88;51.89;101570.19;7394838;19;20007;-68
2022/07/06 07:10:28;;;;;;;4.57;0.90;;;;;;;16.92;52.37;101555.94;7395375;19;20018;-68
2022/07/06 07:12:57;;;;;;;4.00;0.90;;;;;;;16.97;51.81;101569.03;7396877;19;20485;-68
2022/07/06 07:15:28;;;;;;;2.22;0.70;;;;;;;17.01;51.08;101562.72;7396963;19;20086;-68
2022/07/06 07:17:56;;;;;;;2.15;0.70;;;;;;;17.06;51.24;101561.63;7394060;19;20071;-68
2022/07/06 07:20:25;;;;;;;3.55;1.30;;;;;;;17.08;50.03;101564.22;7394356;19;20014;-68
2022/07/06 07:22:53;;;;;;;2.50;0.70;;;;;;;17.16;50.12;101556.88;7394661;19;20361;-68
2022/07/06 07:25:22;;;;;;;3.78;0.75;;;;;;;17.20;49.60;101562.91;7394006;19;20031;-68
2022/07/06 07:27:50;;;;;;;4.97;0.82;;;;;;;17.25;48.68;101560.97;7396048;19;20070;-68
2022/07/06 07:30:19;;;;;;;2.97;1.13;;;;;;;17.30;48.38;101559.03;7394136;19;20014;-68
2022/07/06 07:32:50;;;;;;;3.85;1.08;;;;;;;17.33;47.50;101564.19;7396185;19;20094;-68
2022/07/06 07:35:19;;;;;;;3.28;0.70;;;;;;;17.34;48.06;101563.28;7394293;19;20010;-68
2022/07/06 07:37:47;;;;;;;3.58;0.82;;;;;;;17.33;47.76;101558.91;7395535;19;20070;-68
2022/07/06 07:40:16;;;;;;;4.20;0.73;;;;;;;17.35;46.84;101572.97;7395031;19;20089;-68
2022/07/06 07:42:45;;;;;;;3.50;0.90;;;;;;;17.35;46.82;101570.31;7395521;19;20011;-68
2022/07/06 07:45:13;;;;;;;3.33;1.45;;;;;;;17.42;47.68;101571.81;7394587;19;20078;-68
2022/07/06 07:47:43;;;;;;;4.35;0.73;;;;;;;17.42;47.03;101561.19;7393902;19;20019;-67
2022/07/06 07:50:14;;;;;;;2.13;0.68;;;;;;;17.47;47.33;101570.78;7394772;19;20018;-68
2022/07/06 07:52:43;;;;;;;3.72;1.00;;;;;;;17.51;47.88;101567.09;7396519;19;20018;-67
2022/07/06 07:55:12;;;;;;;1.88;0.60;;;;;;;17.59;48.38;101565.00;7396244;19;20023;-66
2022/07/06 07:57:41;;;;;;;3.33;1.23;;;;;;;17.69;48.03;101569.06;7394728;19;20032;-67
2022/07/06 08:00:17;;;;;;;4.68;1.00;;;;;;;17.77;47.45;101579.38;7395343;19;20478;-68
2022/07/06 08:02:45;;;;;;;1.60;0.80;;;;;;;17.86;47.75;101564.88;7394907;19;20019;-67
2022/07/06 08:05:17;;;;;;;3.08;0.57;;;;;;;17.93;46.97;101569.00;7394661;19;20035;-67
2022/07/06 08:07:45;;;;;;;2.58;0.60;;;;;;;17.99;46.84;101568.78;7394586;19;20026;-68
2022/07/06 08:10:14;;;;;;;5.80;0.80;;;;;;;18.06;45.96;101577.38;7393562;19;20019;-67
2022/07/06 08:12:42;;;;;;;4.20;1.10;;;;;;;18.16;46.15;101567.25;7395391;19;20018;-68
2022/07/06 08:15:11;;;;;;;2.85;0.63;;;;;;;18.26;46.26;101568.63;7393524;19;20019;-68
2022/07/06 08:17:40;;;;;;;3.15;0.70;;;;;;;18.36;45.95;101571.75;7390039;19;20031;-67
2022/07/06 08:20:10;;;;;;;2.72;0.98;;;;;;;18.39;45.82;101567.16;7392735;19;20015;-69
2022/07/06 08:22:41;;;;;;;3.03;0.80;;;;;;;18.43;45.63;101561.75;7394998;19;20553;-68
2022/07/06 08:25:11;;;;;;;2.90;0.80;;;;;;;18.48;45.33;101559.75;7394024;19;20357;-67
2022/07/06 08:27:40;;;;;;;4.45;0.60;;;;;;;18.54;45.16;101564.81;7393543;19;20035;-67
2022/07/06 08:30:10;;;;;;;2.40;0.57;;;;;;;18.54;44.10;101563.00;7392853;19;20485;-68
2022/07/06 08:32:41;;;;;;;3.83;0.90;;;;;;;18.52;44.26;101569.31;7392723;19;20023;-69
2022/07/06 08:35:10;;;;;;;3.78;0.80;;;;;;;18.49;44.74;101572.13;7393906;19;20405;-68
2022/07/06 08:37:41;;;;;;;2.67;0.60;;;;;;;18.44;43.31;101577.63;7392519;19;20086;-68
2022/07/06 08:40:11;;;;;;;3.03;0.82;;;;;;;18.40;41.99;101568.91;7392010;19;20015;-68
2022/07/06 08:42:40;;;;;;;3.95;1.08;;;;;;;18.39;42.77;101564.50;7394274;19;20023;-68
2022/07/06 08:45:10;;;;;;;3.08;0.50;;;;;;;18.43;42.05;101556.44;7393368;19;20082;-67
2022/07/06 08:47:39;;;;;;;1.98;0.85;;;;;;;18.51;41.80;101567.59;7392880;19;20018;-68
2022/07/06 08:50:10;;;;;;;1.63;0.60;;;;;;;18.56;41.58;101563.81;7391844;19;20500;-67
2022/07/06 08:52:42;;;;;;;4.35;0.60;;;;;;;18.52;41.63;101570.16;7393651;19;20361;-67
2022/07/06 08:55:11;;;;;;;2.03;0.50;;;;;;;18.51;42.46;101579.09;7395167;19;20032;-68
2022/07/06 08:57:47;;;;;;;0.68;0.50;;;;;;;18.46;41.49;101553.63;7393016;19;20509;-67
2022/07/06 09:00:17;;;;;;;1.63;0.55;;;;;;;18.42;41.45;101574.16;7391188;19;20540;-67
2022/07/06 09:02:46;;;;;;;0.93;0.50;;;;;;;18.39;41.33;101583.09;7391243;19;20019;-67
2022/07/06 09:05:17;;;;;;;2.95;0.50;;;;;;;18.40;41.23;101578.69;7391343;19;20011;-67
2022/07/06 09:07:52;;;;;;;2.97;0.60;;;;;;;18.38;39.88;101572.56;7390195;19;20533;-69
2022/07/06 09:10:22;;;;;;;1.75;0.55;;;;;;;18.36;40.14;101585.91;7391420;19;20036;-67
2022/07/06 09:12:51;;;;;;;2.78;0.60;;;;;;;18.35;41.11;101581.50;7393782;19;20028;-66
2022/07/06 09:15:20;;;;;;;2.28;0.55;;;;;;;18.39;41.31;101588.41;7391197;19;20027;-67
2022/07/06 09:17:48;;;;;;;2.47;0.60;;;;;;;18.49;41.69;101577.44;7392265;19;20032;-67
2022/07/06 09:20:17;;;;;;;1.83;0.50;;;;;;;18.63;41.64;101582.16;7391317;19;20513;-68
2022/07/06 09:22:48;;;;;;;2.80;0.75;;;;;;;18.74;41.52;101579.91;7389978;19;20035;-66
2022/07/06 09:25:18;;;;;;;1.60;0.52;;;;;;;18.83;42.02;101579.50;7392063;19;20010;-68
2022/07/06 09:27:49;;;;;;;2.08;0.65;;;;;;;18.87;42.06;101582.91;7393254;19;20504;-69
2022/07/06 09:30:19;;;;;;;1.25;0.50;;;;;;;18.86;41.34;101578.50;7396521;19;20090;-67
2022/07/06 09:32:49;;;;;;;5.38;0.50;;;;;;;18.85;41.23;101576.78;7397642;19;20036;-68
2022/07/06 09:35:23;;;;;;;2.30;0.57;;;;;;;18.80;39.83;101571.66;7398182;19;20015;-68
2022/07/06 09:38:03;;;;;;;0.98;0.45;;;;;;;18.79;36.70;101569.94;7397378;19;20023;-69
2022/07/06 09:40:33;;;;;;;1.55;0.40;;;;;;;18.88;37.48;101571.34;7397668;19;20027;-68
2022/07/06 09:43:16;;;;;;;1.17;0.40;;;;;;;18.94;34.90;101570.22;7400104;19;20035;-68
2022/07/06 09:45:46;;;;;;;1.13;0.40;;;;;;;18.99;33.34;101587.72;7396981;19;20019;-68
2022/07/06 09:48:18;;;;;;;2.63;0.32;;;;;;;19.02;34.33;101579.59;7400091;19;20025;-68
2022/07/06 09:50:50;;;;;;;0.75;0.30;;;;;;;19.07;35.15;101589.16;7397330;19;20365;-68
2022/07/06 09:53:23;;;;;;;0.75;0.30;;;;;;;19.13;35.75;101575.59;7400254;19;20127;-68
2022/07/06 09:55:54;;;;;;;2.22;0.65;;;;;;;19.16;36.26;101580.78;7400804;19;20074;-68
2022/07/06 09:58:24;;;;;;;1.65;0.82;;;;;;;19.23;37.11;101584.03;7399961;19;20010;-68
2022/07/06 10:00:53;;;;;;;4.00;0.60;;;;;;;19.31;36.83;101580.09;7397356;19;20039;-69
2022/07/06 10:03:22;;;;;;;1.48;0.38;;;;;;;19.39;36.17;101578.91;7397420;19;20379;-69
2022/07/06 10:05:51;;;;;;;1.77;0.40;;;;;;;19.44;36.48;101571.56;7397843;19;20028;-69
2022/07/06 10:08:23;;;;;;;4.40;0.40;;;;;;;19.43;36.08;101585.78;7395910;19;20011;-68
2022/07/06 10:10:51;;;;;;;2.78;0.57;;;;;;;19.51;36.30;101599.59;7395417;19;20011;-68
2022/07/06 10:13:24;;;;;;;3.80;0.63;;;;;;;19.45;36.32;101573.25;7399160;19;20023;-68
2022/07/06 10:15:54;;;;;;;1.77;0.40;;;;;;;19.52;37.09;101577.38;7397276;19;20018;-68
2022/07/06 10:18:22;;;;;;;4.45;0.57;;;;;;;19.58;37.27;101585.09;7399037;19;20033;-68
2022/07/06 10:20:51;;;;;;;1.38;0.45;;;;;;;19.64;37.62;101587.47;7397019;19;20082;-68
2022/07/06 10:23:24;;;;;;;4.72;0.50;;;;;;;19.59;38.85;101570.84;7396585;19;20022;-67
2022/07/06 10:25:53;;;;;;;5.07;0.80;;;;;;;19.51;38.96;101591.63;7398748;19;20031;-68
2022/07/06 10:28:22;;;;;;;2.65;0.88;;;;;;;19.39;39.21;101589.53;7396007;19;20088;-68
2022/07/06 10:30:52;;;;;;;2.13;0.60;;;;;;;19.29;39.49;101587.28;7396739;19;20022;-68
2022/07/06 10:33:21;;;;;;;2.88;0.80;;;;;;;19.22;40.47;101591.13;7398146;19;20032;-67
2022/07/06 10:35:50;;;;;;;5.10;0.80;;;;;;;19.16;41.13;101596.75;7395827;19;20035;-68
2022/07/06 10:38:19;;;;;;;2.38;0.75;;;;;;;19.05;40.91;101592.75;7397906;19;20090;-68
2022/07/06 10:43:38;;;;;;;4.07;0.77;;;;;;;19.11;40.54;101598.72;7400356;19;20018;-68
2022/07/06 10:46:11;;;;;;;2.28;0.55;;;;;;;19.19;39.89;101592.13;7397130;19;20484;-68
2022/07/06 10:48:41;;;;;;;0.97;0.40;;;;;;;19.28;39.34;101587.34;7398953;19;20045;-67
2022/07/06 10:51:10;;;;;;;5.85;0.50;;;;;;;19.32;38.93;101588.94;7397427;19;20465;-69
2022/07/06 10:53:40;;;;;;;4.15;0.75;;;;;;;19.41;39.00;101588.53;7396543;19;20019;-68
2022/07/06 10:56:13;;;;;;;1.73;0.47;;;;;;;19.46;37.86;101586.53;7396195;19;20055;-68
2022/07/06 10:58:50;;;;;;;2.30;0.52;;;;;;;19.48;36.88;101583.78;7395885;19;20108;-68
2022/07/06 11:01:21;;;;;;;3.50;0.40;;;;;;;19.58;37.61;101568.25;7395616;19;20027;-68
2022/07/06 11:03:50;;;;;;;0.80;0.30;;;;;;;19.69;36.42;101613.88;7394881;19;20515;-68
2022/07/06 11:06:20;;;;;;;3.03;0.50;;;;;;;19.75;36.64;101586.09;7395021;19;20014;-68
2022/07/06 11:08:54;;;;;;;5.47;0.90;;;;;;;19.70;37.26;101576.53;7393344;19;20014;-68
2022/07/06 11:11:27;;;;;;;3.10;0.63;;;;;;;19.66;35.59;101579.41;7394359;19;20126;-68
2022/07/06 11:14:02;;;;;;;2.80;0.73;;;;;;;19.68;34.34;101593.50;7395006;19;20363;-69
2022/07/06 11:16:34;;;;;;;1.00;0.38;;;;;;;19.65;34.95;101575.88;7396877;19;20074;-68
2022/07/06 11:19:06;;;;;;;2.53;0.50;;;;;;;19.66;35.74;101585.59;7396814;19;20031;-67
2022/07/06 11:21:52;;;;;;;1.58;0.30;;;;;;;19.56;34.53;101589.59;7394839;19;20122;-67
2022/07/06 11:24:22;;;;;;;6.85;0.80;;;;;;;19.46;35.78;101585.63;7395110;19;20103;-67
2022/07/06 11:26:55;;;;;;;1.80;0.60;;;;;;;19.50;35.77;101587.25;7395387;19;20022;-67
2022/07/06 11:29:25;;;;;;;1.25;0.50;;;;;;;19.57;35.54;101594.00;7394255;19;20496;-68
2022/07/06 11:31:56;;;;;;;3.40;0.75;;;;;;;19.62;35.01;101554.72;7394953;19;20015;-68
2022/07/06 11:34:26;;;;;;;2.90;0.70;;;;;;;19.60;34.82;101582.34;7396075;19;20087;-68
2022/07/06 11:36:58;;;;;;;3.05;0.60;;;;;;;19.66;34.80;101587.38;7394534;19;20488;-68
2022/07/06 11:39:29;;;;;;;2.05;0.55;;;;;;;19.70;34.78;101588.97;7395910;19;20018;-68
2022/07/06 11:42:01;;;;;;;2.67;0.40;;;;;;;19.77;35.13;101586.91;7394316;19;20014;-68